createdAt,value
2022-08-03T00:01:37.704Z,5.35
2022-08-03T00:04:05.816Z,2.95
2022-08-03T00:06:36.746Z,2.53
2022-08-03T00:09:04.566Z,4.53
2022-08-03T00:11:31.263Z,4.97
2022-08-03T00:13:57.792Z,4.75
2022-08-03T00:16:25.546Z,3.70
2022-08-03T00:18:52.177Z,6.00
2022-08-03T00:21:19.682Z,4.47
2022-08-03T00:23:50.819Z,2.67
2022-08-03T00:26:19.401Z,2.67
2022-08-03T00:28:45.830Z,5.63
2022-08-03T00:31:13.645Z,3.53
2022-08-03T00:33:58.033Z,4.72
2022-08-03T00:36:26.461Z,2.92
2022-08-03T00:38:52.850Z,4.13
2022-08-03T00:41:19.289Z,4.97
2022-08-03T00:43:47.383Z,3.35
2022-08-03T00:46:16.449Z,3.80
2022-08-03T00:48:47.245Z,4.25
2022-08-03T00:51:13.809Z,3.33
2022-08-03T00:53:40.298Z,4.18
2022-08-03T00:56:06.794Z,3.60
2022-08-03T00:58:33.281Z,3.30
2022-08-03T01:00:59.832Z,2.70
2022-08-03T01:03:26.335Z,4.05
2022-08-03T01:06:02.968Z,6.07
2022-08-03T01:08:54.408Z,5.10
2022-08-03T01:12:01.231Z,5.40
2022-08-03T01:14:38.181Z,8.05
2022-08-03T01:17:13.928Z,5.53
2022-08-03T01:19:46.732Z,8.40
2022-08-03T01:22:34.830Z,5.82
2022-08-03T01:25:20.028Z,3.22
2022-08-03T01:28:05.129Z,6.40
2022-08-03T01:30:33.414Z,5.00
2022-08-03T01:33:20.133Z,6.22
2022-08-03T01:35:50.755Z,4.50
2022-08-03T01:38:32.225Z,4.32
2022-08-03T01:41:01.561Z,4.53
2022-08-03T01:43:55.061Z,6.72
2022-08-03T01:46:16.324Z,4.47
2022-08-03T01:48:44.753Z,5.40
2022-08-03T01:51:11.898Z,3.95
2022-08-03T01:53:39.921Z,7.28
2022-08-03T01:56:06.740Z,5.10
2022-08-03T01:58:34.926Z,6.05
2022-08-03T02:01:02.366Z,2.80
2022-08-03T02:03:29.582Z,7.85
2022-08-03T02:06:17.907Z,5.72
2022-08-03T02:08:44.740Z,6.32
2022-08-03T02:11:12.004Z,6.78
2022-08-03T02:13:40.765Z,4.53
2022-08-03T02:16:07.441Z,6.65
2022-08-03T02:18:34.308Z,6.80
2022-08-03T02:21:01.972Z,6.57
2022-08-03T02:23:37.712Z,6.47
2022-08-03T02:26:06.826Z,4.72
2022-08-03T02:28:35.612Z,11.10
2022-08-03T02:31:04.778Z,5.45
2022-08-03T02:33:37.407Z,8.55
2022-08-03T02:38:35.097Z,4.22
2022-08-03T02:41:04.627Z,6.50
2022-08-03T02:43:56.804Z,8.93
2022-08-03T02:46:19.805Z,9.07
2022-08-03T02:48:47.685Z,6.93
2022-08-03T02:51:14.654Z,10.82
2022-08-03T02:53:42.194Z,5.13
2022-08-03T02:56:09.597Z,11.38
2022-08-03T02:58:37.305Z,10.38
2022-08-03T03:01:04.155Z,7.07
2022-08-03T03:03:33.858Z,8.00
2022-08-03T03:06:09.188Z,11.82
2022-08-03T03:08:36.833Z,7.55
2022-08-03T03:11:07.473Z,7.68
2022-08-03T03:13:33.942Z,7.55
2022-08-03T03:16:03.837Z,6.95
2022-08-03T03:18:34.006Z,6.07
2022-08-03T03:21:04.539Z,6.10
2022-08-03T03:23:31.809Z,8.15
2022-08-03T03:26:02.165Z,9.45
2022-08-03T03:28:28.738Z,8.00
2022-08-03T03:30:55.292Z,8.80
2022-08-03T03:33:22.677Z,7.90
2022-08-03T03:35:49.260Z,6.70
2022-08-03T03:38:15.814Z,14.77
2022-08-03T03:40:42.550Z,6.55
2022-08-03T03:43:09.882Z,7.32
2022-08-03T03:45:36.701Z,7.28
2022-08-03T03:48:06.646Z,7.93
2022-08-03T03:50:34.405Z,9.00
2022-08-03T03:53:04.262Z,8.90
2022-08-03T03:55:31.083Z,9.25
2022-08-03T03:57:57.495Z,10.05
2022-08-03T04:00:23.954Z,8.50
2022-08-03T04:02:50.523Z,9.13
2022-08-03T04:05:35.772Z,15.57
2022-08-03T04:08:24.909Z,9.93
2022-08-03T04:11:14.578Z,8.88
2022-08-03T04:13:49.540Z,6.68
2022-08-03T04:16:17.901Z,5.40
2022-08-03T04:18:48.404Z,8.07
2022-08-03T04:21:16.177Z,9.70
2022-08-03T04:23:44.522Z,10.63
2022-08-03T04:26:12.063Z,9.82
2022-08-03T04:28:39.602Z,13.88
2022-08-03T04:31:07.266Z,10.15
2022-08-03T04:33:35.218Z,10.18
2022-08-03T04:36:04.972Z,7.78
2022-08-03T04:38:32.752Z,6.30
2022-08-03T04:40:59.796Z,9.13
2022-08-03T04:43:27.060Z,10.20
2022-08-03T04:45:54.257Z,11.05
2022-08-03T04:48:21.069Z,9.68
2022-08-03T04:50:48.781Z,8.70
2022-08-03T04:53:16.248Z,7.38
2022-08-03T04:55:42.900Z,7.30
2022-08-03T04:58:09.553Z,8.43
2022-08-03T05:00:36.072Z,9.20
2022-08-03T05:03:02.587Z,10.70
2022-08-03T05:05:36.282Z,9.63
2022-08-03T05:08:15.616Z,10.82
2022-08-03T05:11:35.925Z,7.70
2022-08-03T05:14:02.335Z,10.60
2022-08-03T05:16:28.723Z,10.10
2022-08-03T05:18:55.128Z,10.38
2022-08-03T05:21:21.521Z,11.30
2022-08-03T05:23:47.945Z,10.25
2022-08-03T05:26:14.433Z,7.00
2022-08-03T05:28:50.626Z,8.07
2022-08-03T05:31:17.585Z,9.15
2022-08-03T05:33:44.701Z,9.02
2022-08-03T05:36:12.573Z,9.38
2022-08-03T05:38:39.098Z,8.38
2022-08-03T05:41:21.755Z,12.55
2022-08-03T05:43:51.091Z,10.85
2022-08-03T05:46:17.421Z,8.38
2022-08-03T05:48:44.915Z,10.32
2022-08-03T05:51:12.067Z,9.48
2022-08-03T05:53:39.620Z,12.82
2022-08-03T05:56:13.714Z,13.43
2022-08-03T05:58:44.229Z,10.88
2022-08-03T06:01:10.848Z,12.65
2022-08-03T06:03:37.359Z,10.00
2022-08-03T06:06:03.882Z,18.20
2022-08-03T06:08:30.332Z,9.43
2022-08-03T06:10:56.757Z,7.95
2022-08-03T06:13:24.222Z,12.02
2022-08-03T06:15:50.636Z,9.70
2022-08-03T06:18:17.088Z,16.08
2022-08-03T06:20:43.544Z,12.98
2022-08-03T06:23:15.959Z,13.88
2022-08-03T06:25:43.016Z,10.27
2022-08-03T06:28:15.004Z,15.07
2022-08-03T06:30:50.776Z,9.80
2022-08-03T06:33:17.154Z,13.00
2022-08-03T06:35:45.238Z,12.60
2022-08-03T06:38:12.888Z,12.90
2022-08-03T06:40:42.267Z,8.82
2022-08-03T06:43:12.465Z,8.63
2022-08-03T06:45:39.625Z,9.60
2022-08-03T06:48:15.078Z,5.60
2022-08-03T06:50:41.857Z,11.85
2022-08-03T06:53:09.593Z,13.23
2022-08-03T06:55:44.626Z,17.58
2022-08-03T06:58:10.999Z,13.77
2022-08-03T07:00:37.405Z,11.23
2022-08-03T07:03:03.793Z,10.07
2022-08-03T07:05:30.692Z,8.70
2022-08-03T07:07:57.742Z,10.30
2022-08-03T07:10:24.230Z,11.93
2022-08-03T07:12:56.086Z,11.20
2022-08-03T07:15:54.580Z,19.27
2022-08-03T07:18:10.859Z,8.68
2022-08-03T07:20:37.212Z,12.63
2022-08-03T07:23:03.631Z,10.82
2022-08-03T07:25:30.034Z,13.18
2022-08-03T07:27:56.466Z,14.18
2022-08-03T07:30:22.964Z,14.73
2022-08-03T07:32:50.555Z,18.58
2022-08-03T07:35:24.410Z,15.55
2022-08-03T07:37:54.081Z,10.63
2022-08-03T07:40:22.058Z,15.55
2022-08-03T07:42:48.550Z,15.52
2022-08-03T07:45:19.796Z,8.18
2022-08-03T07:47:53.236Z,13.48
2022-08-03T07:50:20.849Z,12.63
2022-08-03T07:52:51.642Z,9.32
2022-08-03T07:55:19.045Z,14.93
2022-08-03T07:57:45.510Z,14.00
2022-08-03T08:00:18.717Z,22.77
2022-08-03T08:02:45.385Z,8.60
2022-08-03T08:05:12.486Z,16.77
2022-08-03T08:07:39.002Z,9.82
2022-08-03T08:10:06.257Z,13.25
2022-08-03T08:12:32.772Z,9.38
2022-08-03T08:14:59.137Z,7.20
2022-08-03T08:17:25.509Z,11.02
2022-08-03T08:19:53.222Z,10.27
2022-08-03T08:22:30.169Z,16.83
2022-08-03T08:24:57.391Z,10.55
2022-08-03T08:27:23.762Z,16.55
2022-08-03T08:29:54.583Z,9.77
2022-08-03T08:32:23.889Z,10.25
2022-08-03T08:34:50.344Z,12.95
2022-08-03T08:37:16.707Z,14.90
2022-08-03T08:39:43.132Z,13.05
2022-08-03T08:42:10.095Z,16.77
2022-08-03T08:44:36.466Z,12.55
2022-08-03T08:47:03.311Z,13.68
2022-08-03T08:49:30.190Z,15.20
2022-08-03T08:52:00.820Z,12.07
2022-08-03T08:54:29.062Z,10.98
2022-08-03T08:56:56.682Z,13.82
2022-08-03T08:59:23.861Z,13.50
2022-08-03T09:01:50.367Z,11.95
2022-08-03T09:04:16.954Z,12.35
2022-08-03T09:06:58.657Z,13.88
2022-08-03T09:10:12.048Z,9.63
2022-08-03T09:12:40.591Z,13.55
2022-08-03T09:15:23.246Z,12.07
2022-08-03T09:17:51.356Z,7.80
2022-08-03T09:20:18.547Z,13.40
2022-08-03T09:23:00.247Z,13.15
2022-08-03T09:25:37.115Z,13.80
2022-08-03T09:28:05.166Z,9.02
2022-08-03T09:30:34.674Z,14.15
2022-08-03T09:33:05.754Z,10.18
2022-08-03T09:35:53.163Z,12.00
2022-08-03T09:38:23.946Z,10.52
2022-08-03T09:43:17.295Z,10.77
2022-08-03T09:45:44.342Z,11.02
2022-08-03T09:48:30.154Z,9.82
2022-08-03T09:51:13.086Z,9.57
2022-08-03T09:53:58.713Z,12.27
2022-08-03T09:56:37.730Z,10.13
2022-08-03T09:59:04.374Z,8.75
2022-08-03T10:01:35.068Z,13.50
2022-08-03T10:04:03.219Z,12.57
2022-08-03T10:06:30.970Z,12.05
2022-08-03T10:09:07.770Z,12.82
2022-08-03T10:11:41.339Z,11.38
2022-08-03T10:14:10.045Z,8.90
2022-08-03T10:16:37.467Z,12.52
2022-08-03T10:19:04.732Z,11.93
2022-08-03T10:21:33.762Z,11.82
2022-08-03T10:24:02.130Z,11.52
2022-08-03T10:26:31.150Z,18.95
2022-08-03T10:28:58.639Z,20.08
2022-08-03T10:31:25.502Z,13.25
2022-08-03T10:33:55.830Z,19.17
2022-08-03T10:36:23.453Z,12.48
2022-08-03T10:38:54.084Z,14.75
2022-08-03T10:41:21.492Z,9.67
2022-08-03T10:43:53.015Z,8.25
2022-08-03T10:48:46.334Z,11.25
2022-08-03T10:51:13.637Z,14.77
2022-08-03T10:53:42.460Z,17.70
2022-08-03T10:56:51.165Z,16.23
2022-08-03T10:59:27.765Z,15.25
2022-08-03T11:01:58.934Z,17.15
2022-08-03T11:04:29.240Z,19.95
2022-08-03T11:07:14.457Z,19.63
2022-08-03T11:09:44.603Z,11.32
2022-08-03T11:12:30.213Z,15.52
2022-08-03T11:14:58.459Z,17.33
2022-08-03T11:17:24.893Z,16.75
2022-08-03T11:19:56.895Z,22.27
2022-08-03T11:22:25.031Z,19.80
2022-08-03T11:24:53.702Z,15.75
2022-08-03T11:27:21.325Z,16.80
2022-08-03T11:29:56.860Z,22.38
2022-08-03T11:32:40.045Z,15.63
2022-08-03T11:35:13.969Z,20.50
2022-08-03T11:38:03.045Z,17.83
2022-08-03T11:40:40.927Z,19.50
2022-08-03T11:43:08.628Z,22.95
2022-08-03T11:45:35.738Z,17.48
2022-08-03T11:48:15.843Z,18.88
2022-08-03T11:50:45.198Z,17.02
2022-08-03T11:53:16.678Z,13.80
2022-08-03T11:55:46.785Z,15.02
2022-08-03T11:59:01.773Z,16.92
2022-08-03T12:01:07.650Z,21.40
2022-08-03T12:03:34.545Z,17.58
2022-08-03T12:06:04.706Z,21.42
2022-08-03T12:08:32.743Z,25.98
2022-08-03T12:11:00.575Z,25.75
2022-08-03T12:14:45.023Z,24.15
2022-08-03T12:16:19.689Z,21.42
2022-08-03T12:18:52.819Z,17.48
2022-08-03T12:21:19.230Z,10.82
2022-08-03T12:23:45.570Z,17.95
2022-08-03T12:26:12.190Z,15.25
2022-08-03T12:28:49.779Z,13.20
2022-08-03T12:31:16.927Z,10.57
2022-08-03T12:33:56.946Z,11.25
2022-08-03T12:36:23.557Z,10.93
2022-08-03T12:38:57.402Z,17.33
2022-08-03T12:41:35.040Z,16.42
2022-08-03T12:44:03.471Z,10.93
2022-08-03T12:46:43.941Z,11.65
2022-08-03T12:49:15.371Z,11.13
2022-08-03T12:51:41.822Z,14.02
2022-08-03T12:54:08.693Z,9.70
2022-08-03T12:56:35.286Z,11.27
2022-08-03T12:59:21.633Z,13.40
2022-08-03T13:01:49.151Z,13.13
2022-08-03T13:04:25.628Z,11.52
2022-08-03T13:07:02.677Z,11.77
2022-08-03T13:09:31.783Z,14.35
2022-08-03T13:12:15.390Z,15.70
2022-08-03T13:14:46.924Z,7.50
2022-08-03T13:17:13.507Z,10.63
2022-08-03T13:19:40.254Z,11.23
2022-08-03T13:22:18.919Z,11.98
2022-08-03T13:24:46.252Z,12.77
2022-08-03T13:28:01.464Z,14.52
2022-08-03T13:29:59.534Z,9.82
2022-08-03T13:32:25.929Z,11.90
2022-08-03T13:34:52.313Z,9.13
2022-08-03T13:37:18.826Z,8.50
2022-08-03T13:39:58.471Z,10.00
2022-08-03T13:42:26.840Z,10.60
2022-08-03T13:44:53.177Z,10.85
2022-08-03T13:47:20.182Z,10.93
2022-08-03T13:49:54.148Z,6.05
2022-08-03T13:52:32.170Z,8.20
2022-08-03T13:54:58.921Z,5.00
2022-08-03T13:58:03.394Z,6.45
2022-08-03T14:00:12.194Z,4.53
2022-08-03T14:02:38.852Z,11.18
2022-08-03T14:05:05.645Z,7.22
2022-08-03T14:07:32.021Z,5.22
2022-08-03T14:09:58.489Z,7.25
2022-08-03T14:12:24.876Z,4.47
2022-08-03T14:14:51.275Z,5.30
2022-08-03T14:17:18.126Z,8.48
2022-08-03T14:19:52.965Z,7.07
2022-08-03T14:22:20.872Z,6.85
2022-08-03T14:24:47.261Z,7.97
2022-08-03T14:27:13.603Z,11.52
2022-08-03T14:29:39.979Z,5.95
2022-08-03T14:32:11.914Z,7.15
2022-08-03T14:34:39.477Z,6.35
2022-08-03T14:37:06.212Z,5.35
2022-08-03T14:42:20.345Z,6.07
2022-08-03T14:44:46.822Z,5.45
2022-08-03T14:47:13.745Z,7.10
2022-08-03T14:50:36.612Z,6.45
2022-08-03T14:52:26.633Z,6.50
2022-08-03T14:54:53.086Z,11.02
2022-08-03T14:57:19.545Z,9.15
2022-08-03T14:59:56.898Z,8.90
2022-08-03T15:02:24.599Z,5.55
2022-08-03T15:04:51.352Z,12.07
2022-08-03T15:07:17.948Z,10.02
2022-08-03T15:09:44.538Z,4.75
2022-08-03T15:12:10.962Z,6.07
2022-08-03T15:14:37.872Z,6.82
2022-08-03T15:17:04.593Z,9.50
2022-08-03T15:20:02.235Z,6.43
2022-08-03T15:22:20.731Z,6.97
2022-08-03T15:24:51.628Z,5.90
2022-08-03T15:27:18.164Z,9.57
2022-08-03T15:30:05.988Z,7.95
2022-08-03T15:32:31.027Z,9.52
2022-08-03T15:34:57.379Z,6.82
2022-08-03T15:37:25.570Z,5.40
2022-08-03T15:39:59.579Z,7.55
2022-08-03T15:42:30.616Z,8.77
2022-08-03T15:44:57.061Z,7.57
2022-08-03T15:47:23.420Z,5.63
2022-08-03T15:49:49.799Z,12.18
2022-08-03T15:52:16.201Z,6.30
2022-08-03T15:54:42.765Z,6.05
2022-08-03T15:57:09.129Z,10.18
2022-08-03T15:59:35.492Z,5.90
2022-08-03T16:02:01.984Z,7.00
2022-08-03T16:04:28.506Z,5.88
2022-08-03T16:06:54.941Z,5.47
2022-08-03T16:09:23.124Z,7.35
2022-08-03T16:11:50.980Z,3.65
2022-08-03T16:14:32.671Z,4.88
2022-08-03T16:17:02.142Z,6.57
2022-08-03T16:19:28.590Z,6.03
2022-08-03T16:21:54.961Z,6.03
2022-08-03T16:24:28.119Z,6.40
2022-08-03T16:26:54.945Z,10.73
2022-08-03T16:29:23.105Z,5.28
2022-08-03T16:31:50.956Z,6.90
2022-08-03T16:34:18.165Z,4.47
2022-08-03T16:36:46.592Z,7.22
2022-08-03T16:39:13.089Z,3.90
2022-08-03T16:42:00.480Z,9.35
2022-08-03T16:44:26.121Z,5.85
2022-08-03T16:46:53.604Z,8.27
2022-08-03T16:49:55.031Z,5.63
2022-08-03T16:52:07.242Z,11.30
2022-08-03T16:54:33.829Z,9.38
2022-08-03T16:57:01.395Z,7.53
2022-08-03T16:59:35.934Z,4.75
2022-08-03T17:02:07.980Z,4.35
2022-08-03T17:04:36.633Z,9.60
2022-08-03T17:07:06.931Z,8.23
2022-08-03T17:09:38.813Z,3.47
2022-08-03T17:12:05.765Z,9.50
2022-08-03T17:14:33.751Z,5.63
2022-08-03T17:17:01.424Z,7.07
2022-08-03T17:19:28.913Z,7.18
2022-08-03T17:21:57.046Z,4.70
2022-08-03T17:24:28.668Z,2.40
2022-08-03T17:26:55.429Z,2.50
2022-08-03T17:29:25.166Z,6.93
2022-08-03T17:31:52.939Z,4.10
2022-08-03T17:34:19.896Z,7.57
2022-08-03T17:37:03.903Z,8.65
2022-08-03T17:39:57.163Z,3.97
2022-08-03T17:42:29.630Z,5.05
2022-08-03T17:44:58.570Z,6.68
2022-08-03T17:47:41.847Z,4.13
2022-08-03T17:50:25.050Z,7.70
2022-08-03T17:52:57.842Z,5.30
2022-08-03T17:58:32.901Z,6.95
2022-08-03T18:01:58.323Z,5.47
2022-08-03T18:04:10.909Z,6.80
2022-08-03T18:06:56.152Z,5.13
2022-08-03T18:10:04.852Z,6.53
2022-08-03T18:12:13.063Z,6.57
2022-08-03T18:14:57.162Z,9.23
2022-08-03T18:17:55.804Z,8.20
2022-08-03T18:20:32.106Z,4.57
2022-08-03T18:23:04.465Z,9.07
2022-08-03T18:25:42.716Z,6.03
2022-08-03T18:28:18.673Z,4.82
2022-08-03T18:30:53.492Z,7.88
2022-08-03T18:34:32.009Z,5.57
2022-08-03T18:36:10.904Z,7.03
2022-08-03T18:38:41.032Z,7.63
2022-08-03T18:41:15.705Z,3.35
2022-08-03T18:44:07.811Z,6.82
2022-08-03T18:46:37.642Z,3.63
2022-08-03T18:49:12.634Z,7.38
2022-08-03T18:54:51.748Z,6.40
2022-08-03T18:57:15.829Z,5.25
2022-08-03T19:00:10.528Z,3.08
2022-08-03T19:02:41.395Z,3.88
2022-08-03T19:05:20.428Z,5.13
2022-08-03T19:07:59.862Z,5.40
2022-08-03T19:10:30.201Z,8.48
2022-08-03T19:15:36.369Z,5.80
2022-08-03T19:18:08.761Z,6.57
2022-08-03T19:20:37.533Z,4.05
2022-08-03T19:23:04.338Z,7.40
2022-08-03T19:25:37.773Z,5.07
2022-08-03T19:28:05.935Z,7.15
2022-08-03T19:30:39.043Z,6.03
2022-08-03T19:33:07.513Z,5.72
2022-08-03T19:35:51.696Z,8.05
2022-08-03T19:38:27.432Z,9.52
2022-08-03T19:40:56.862Z,5.57
2022-08-03T19:43:33.320Z,7.13
2022-08-03T19:46:16.461Z,9.18
2022-08-03T19:48:43.540Z,7.25
2022-08-03T19:51:12.673Z,4.47
2022-08-03T19:53:44.886Z,4.78
2022-08-03T19:56:14.195Z,3.65
2022-08-03T19:58:42.453Z,6.05
2022-08-03T20:01:19.522Z,8.30
2022-08-03T20:03:48.582Z,3.53
2022-08-03T20:06:23.037Z,5.35
2022-08-03T20:08:51.761Z,3.08
2022-08-03T20:11:18.699Z,4.07
2022-08-03T20:13:46.236Z,4.18
2022-08-03T20:16:14.953Z,4.05
2022-08-03T20:18:43.592Z,6.45
2022-08-03T20:21:15.205Z,5.68
2022-08-03T20:24:22.906Z,5.97
2022-08-03T20:26:29.692Z,6.68
2022-08-03T20:29:00.782Z,4.63
2022-08-03T20:31:37.473Z,5.93
2022-08-03T20:34:04.743Z,6.22
2022-08-03T20:36:31.750Z,4.95
2022-08-03T20:38:59.051Z,4.43
2022-08-03T20:41:26.468Z,5.07
2022-08-03T20:43:53.027Z,6.13
2022-08-03T20:46:29.117Z,5.15
2022-08-03T20:49:00.929Z,6.28
2022-08-03T20:51:50.140Z,4.70
2022-08-03T20:54:22.729Z,5.93
2022-08-03T20:56:57.678Z,4.68
2022-08-03T20:59:28.676Z,8.68
2022-08-03T21:01:56.978Z,5.18
2022-08-03T21:04:24.014Z,5.10
2022-08-03T21:06:57.008Z,7.78
2022-08-03T21:09:25.066Z,5.15
2022-08-03T21:12:02.878Z,4.88
2022-08-03T21:13:00.575Z,7.97
2022-08-03T21:13:05.980Z,1.23
2022-08-03T21:17:01.745Z,9.15
2022-08-03T21:19:34.157Z,6.88
2022-08-03T21:22:03.197Z,3.08
2022-08-03T21:24:33.068Z,4.57
2022-08-03T21:27:00.164Z,5.88
2022-08-03T21:29:28.100Z,7.25
2022-08-03T21:31:55.212Z,4.65
2022-08-03T21:34:22.551Z,9.85
2022-08-03T21:36:48.945Z,5.38
2022-08-03T21:39:15.524Z,5.85
2022-08-03T21:41:42.039Z,5.45
2022-08-03T21:44:08.642Z,5.00
2022-08-03T21:46:37.029Z,3.15
2022-08-03T21:50:02.656Z,5.60
2022-08-03T21:51:52.094Z,4.45
2022-08-03T21:54:20.477Z,4.22
2022-08-03T21:56:47.474Z,5.18
2022-08-03T21:59:17.946Z,7.60
2022-08-03T22:01:48.933Z,8.95
2022-08-03T22:04:38.807Z,5.63
2022-08-03T22:07:06.725Z,8.95
2022-08-03T22:09:35.232Z,8.20
2022-08-03T22:12:01.749Z,5.25
2022-08-03T22:14:28.793Z,6.65
2022-08-03T22:16:56.197Z,8.30
2022-08-03T22:19:22.698Z,6.70
2022-08-03T22:21:49.636Z,9.23
2022-08-03T22:24:18.941Z,4.80
2022-08-03T22:27:09.575Z,5.03
2022-08-03T22:29:36.573Z,4.43
2022-08-03T22:32:03.411Z,4.43
2022-08-03T22:34:30.028Z,4.20
2022-08-03T22:37:00.562Z,4.70
2022-08-03T22:39:28.050Z,3.45
2022-08-03T22:41:55.786Z,5.47
2022-08-03T22:44:24.689Z,4.35
2022-08-03T22:46:51.342Z,3.50
2022-08-03T22:49:18.055Z,5.47
2022-08-03T22:51:45.869Z,5.57
2022-08-03T22:54:12.334Z,3.53
2022-08-03T22:56:39.010Z,6.22
2022-08-03T22:59:41.127Z,8.18
2022-08-03T23:01:55.442Z,6.85
2022-08-03T23:04:22.851Z,3.42
2022-08-03T23:06:50.549Z,2.90
2022-08-03T23:09:19.673Z,5.63
2022-08-03T23:11:46.829Z,5.47
2022-08-03T23:14:15.769Z,3.53
2022-08-03T23:16:42.893Z,3.47
2022-08-03T23:19:17.137Z,2.05
2022-08-03T23:22:00.784Z,5.70
2022-08-03T23:24:30.286Z,1.83
2022-08-03T23:26:57.063Z,4.03
2022-08-03T23:29:23.577Z,3.72
2022-08-03T23:31:52.156Z,3.20
2022-08-03T23:34:40.126Z,3.35
2022-08-03T23:37:06.596Z,6.45
2022-08-03T23:39:35.347Z,2.60
2022-08-03T23:42:02.844Z,3.58
2022-08-03T23:44:30.426Z,6.35
2022-08-03T23:46:57.263Z,3.88
2022-08-03T23:49:23.671Z,2.67
2022-08-03T23:51:57.300Z,5.95
2022-08-03T23:54:28.513Z,5.53
2022-08-03T23:57:04.909Z,6.85
